sensor_id;sensor_type;location;lat;lon;timestamp;P1;durP1;ratioP1;P2;durP2;ratioP2
60588;SDS011;46421;48.610;9.334;2023-04-09T00:00:40;8.73;;;4.17;;
60588;SDS011;46421;48.610;9.334;2023-04-09T00:03:05;9.05;;;4.22;;
60588;SDS011;46421;48.610;9.334;2023-04-09T00:05:31;9.30;;;4.53;;
60588;SDS011;46421;48.610;9.334;2023-04-09T00:07:56;12.00;;;4.70;;
60588;SDS011;46421;48.610;9.334;2023-04-09T00:10:22;8.65;;;4.07;;
60588;SDS011;46421;48.610;9.334;2023-04-09T00:12:47;9.45;;;4.05;;
60588;SDS011;46421;48.610;9.334;2023-04-09T00:15:12;7.80;;;4.23;;
60588;SDS011;46421;48.610;9.334;2023-04-09T00:17:38;9.05;;;4.18;;
60588;SDS011;46421;48.610;9.334;2023-04-09T00:20:03;8.15;;;3.92;;
60588;SDS011;46421;48.610;9.334;2023-04-09T00:22:29;10.30;;;4.10;;
60588;SDS011;46421;48.610;9.334;2023-04-09T00:24:55;9.55;;;3.65;;
60588;SDS011;46421;48.610;9.334;2023-04-09T00:27:21;8.35;;;4.00;;
60588;SDS011;46421;48.610;9.334;2023-04-09T00:29:46;10.30;;;4.50;;
60588;SDS011;46421;48.610;9.334;2023-04-09T00:32:12;7.97;;;4.10;;
60588;SDS011;46421;48.610;9.334;2023-04-09T00:34:37;9.88;;;4.60;;
60588;SDS011;46421;48.610;9.334;2023-04-09T00:37:03;8.60;;;4.00;;
60588;SDS011;46421;48.610;9.334;2023-04-09T00:39:29;9.07;;;4.47;;
60588;SDS011;46421;48.610;9.334;2023-04-09T00:41:55;9.37;;;4.20;;
60588;SDS011;46421;48.610;9.334;2023-04-09T00:44:23;9.40;;;4.10;;
60588;SDS011;46421;48.610;9.334;2023-04-09T00:46:49;8.75;;;4.50;;
60588;SDS011;46421;48.610;9.334;2023-04-09T00:49:15;9.43;;;4.45;;
60588;SDS011;46421;48.610;9.334;2023-04-09T00:51:42;9.25;;;4.13;;
60588;SDS011;46421;48.610;9.334;2023-04-09T00:54:09;7.13;;;3.22;;
60588;SDS011;46421;48.610;9.334;2023-04-09T00:56:34;8.68;;;3.83;;
60588;SDS011;46421;48.610;9.334;2023-04-09T00:59:00;8.73;;;3.92;;
60588;SDS011;46421;48.610;9.334;2023-04-09T01:01:26;9.07;;;4.13;;
60588;SDS011;46421;48.610;9.334;2023-04-09T01:03:52;8.75;;;4.38;;
60588;SDS011;46421;48.610;9.334;2023-04-09T01:09:14;7.68;;;3.70;;
60588;SDS011;46421;48.610;9.334;2023-04-09T01:14:30;9.15;;;4.43;;
60588;SDS011;46421;48.610;9.334;2023-04-09T01:22:23;9.32;;;4.20;;
60588;SDS011;46421;48.610;9.334;2023-04-09T01:25:08;7.15;;;3.50;;
60588;SDS011;46421;48.610;9.334;2023-04-09T01:27:53;8.15;;;3.72;;
60588;SDS011;46421;48.610;9.334;2023-04-09T01:30:28;7.97;;;4.20;;
60588;SDS011;46421;48.610;9.334;2023-04-09T01:32:55;8.77;;;4.20;;
60588;SDS011;46421;48.610;9.334;2023-04-09T01:35:21;9.23;;;4.35;;
60588;SDS011;46421;48.610;9.334;2023-04-09T01:37:48;10.68;;;5.13;;
60588;SDS011;46421;48.610;9.334;2023-04-09T01:40:14;9.75;;;4.30;;
60588;SDS011;46421;48.610;9.334;2023-04-09T01:42:39;9.75;;;4.18;;
60588;SDS011;46421;48.610;9.334;2023-04-09T01:45:05;9.63;;;4.15;;
60588;SDS011;46421;48.610;9.334;2023-04-09T01:47:31;9.63;;;4.38;;
60588;SDS011;46421;48.610;9.334;2023-04-09T01:49:57;8.65;;;4.38;;
60588;SDS011;46421;48.610;9.334;2023-04-09T01:52:22;10.23;;;4.50;;
60588;SDS011;46421;48.610;9.334;2023-04-09T01:54:48;8.90;;;4.53;;
60588;SDS011;46421;48.610;9.334;2023-04-09T01:57:13;10.13;;;4.30;;
60588;SDS011;46421;48.610;9.334;2023-04-09T01:59:38;8.53;;;4.43;;
60588;SDS011;46421;48.610;9.334;2023-04-09T02:02:05;8.77;;;4.65;;
60588;SDS011;46421;48.610;9.334;2023-04-09T02:04:42;9.52;;;4.50;;
60588;SDS011;46421;48.610;9.334;2023-04-09T02:07:27;11.43;;;4.78;;
60588;SDS011;46421;48.610;9.334;2023-04-09T02:10:09;9.18;;;4.43;;
60588;SDS011;46421;48.610;9.334;2023-04-09T02:12:37;10.50;;;5.30;;
60588;SDS011;46421;48.610;9.334;2023-04-09T02:15:05;11.02;;;5.35;;
60588;SDS011;46421;48.610;9.334;2023-04-09T02:17:31;10.38;;;4.65;;
60588;SDS011;46421;48.610;9.334;2023-04-09T02:19:56;10.60;;;4.40;;
60588;SDS011;46421;48.610;9.334;2023-04-09T02:22:22;9.10;;;4.85;;
60588;SDS011;46421;48.610;9.334;2023-04-09T02:24:47;9.55;;;4.45;;
60588;SDS011;46421;48.610;9.334;2023-04-09T02:27:13;8.38;;;4.25;;
60588;SDS011;46421;48.610;9.334;2023-04-09T02:29:39;9.98;;;4.38;;
60588;SDS011;46421;48.610;9.334;2023-04-09T02:32:05;11.70;;;5.00;;
60588;SDS011;46421;48.610;9.334;2023-04-09T02:34:30;9.77;;;4.50;;
60588;SDS011;46421;48.610;9.334;2023-04-09T02:36:56;11.33;;;5.13;;
60588;SDS011;46421;48.610;9.334;2023-04-09T02:39:21;9.73;;;4.38;;
60588;SDS011;46421;48.610;9.334;2023-04-09T02:41:46;9.70;;;4.70;;
60588;SDS011;46421;48.610;9.334;2023-04-09T02:44:12;11.60;;;4.93;;
60588;SDS011;46421;48.610;9.334;2023-04-09T02:46:37;10.52;;;4.85;;
60588;SDS011;46421;48.610;9.334;2023-04-09T02:49:03;9.50;;;4.38;;
60588;SDS011;46421;48.610;9.334;2023-04-09T02:51:29;9.55;;;5.20;;
60588;SDS011;46421;48.610;9.334;2023-04-09T02:53:54;9.87;;;4.97;;
60588;SDS011;46421;48.610;9.334;2023-04-09T02:56:19;10.82;;;5.50;;
60588;SDS011;46421;48.610;9.334;2023-04-09T02:58:45;11.17;;;5.00;;
60588;SDS011;46421;48.610;9.334;2023-04-09T03:01:13;11.00;;;5.00;;
60588;SDS011;46421;48.610;9.334;2023-04-09T03:03:39;11.43;;;5.03;;
60588;SDS011;46421;48.610;9.334;2023-04-09T03:08:31;9.00;;;4.03;;
60588;SDS011;46421;48.610;9.334;2023-04-09T03:10:56;9.50;;;5.07;;
60588;SDS011;46421;48.610;9.334;2023-04-09T03:13:22;11.37;;;5.07;;
60588;SDS011;46421;48.610;9.334;2023-04-09T03:15:50;9.53;;;4.63;;
60588;SDS011;46421;48.610;9.334;2023-04-09T03:18:17;11.00;;;5.32;;
60588;SDS011;46421;48.610;9.334;2023-04-09T03:20:42;10.80;;;5.30;;
60588;SDS011;46421;48.610;9.334;2023-04-09T03:23:09;9.48;;;4.05;;
60588;SDS011;46421;48.610;9.334;2023-04-09T03:25:34;8.27;;;4.15;;
60588;SDS011;46421;48.610;9.334;2023-04-09T03:28:00;10.15;;;4.68;;
60588;SDS011;46421;48.610;9.334;2023-04-09T03:30:25;8.30;;;4.03;;
60588;SDS011;46421;48.610;9.334;2023-04-09T03:32:50;9.53;;;4.97;;
60588;SDS011;46421;48.610;9.334;2023-04-09T03:35:16;9.57;;;4.55;;
60588;SDS011;46421;48.610;9.334;2023-04-09T03:37:41;9.70;;;4.43;;
60588;SDS011;46421;48.610;9.334;2023-04-09T03:40:07;8.80;;;4.47;;
60588;SDS011;46421;48.610;9.334;2023-04-09T03:42:32;8.43;;;3.70;;
60588;SDS011;46421;48.610;9.334;2023-04-09T03:44:59;11.23;;;4.63;;
60588;SDS011;46421;48.610;9.334;2023-04-09T03:47:24;10.65;;;5.30;;
60588;SDS011;46421;48.610;9.334;2023-04-09T03:49:49;9.30;;;4.60;;
60588;SDS011;46421;48.610;9.334;2023-04-09T03:52:15;13.20;;;5.07;;
60588;SDS011;46421;48.610;9.334;2023-04-09T03:54:40;8.93;;;4.03;;
60588;SDS011;46421;48.610;9.334;2023-04-09T03:57:07;10.68;;;4.60;;
60588;SDS011;46421;48.610;9.334;2023-04-09T03:59:32;9.40;;;4.70;;
60588;SDS011;46421;48.610;9.334;2023-04-09T04:01:58;10.27;;;4.27;;
60588;SDS011;46421;48.610;9.334;2023-04-09T04:04:23;9.90;;;4.60;;
60588;SDS011;46421;48.610;9.334;2023-04-09T04:06:49;10.23;;;4.70;;
60588;SDS011;46421;48.610;9.334;2023-04-09T04:09:14;11.95;;;4.28;;
60588;SDS011;46421;48.610;9.334;2023-04-09T04:11:39;9.17;;;4.57;;
60588;SDS011;46421;48.610;9.334;2023-04-09T04:14:05;10.57;;;4.70;;
60588;SDS011;46421;48.610;9.334;2023-04-09T04:16:30;9.18;;;5.13;;
60588;SDS011;46421;48.610;9.334;2023-04-09T04:18:56;9.18;;;4.10;;
60588;SDS011;46421;48.610;9.334;2023-04-09T04:21:21;8.68;;;4.60;;
60588;SDS011;46421;48.610;9.334;2023-04-09T04:23:47;11.40;;;5.43;;
60588;SDS011;46421;48.610;9.334;2023-04-09T04:26:12;12.70;;;5.38;;
60588;SDS011;46421;48.610;9.334;2023-04-09T04:28:38;9.52;;;4.97;;
60588;SDS011;46421;48.610;9.334;2023-04-09T04:31:07;9.00;;;4.47;;
60588;SDS011;46421;48.610;9.334;2023-04-09T04:33:34;11.98;;;4.90;;
60588;SDS011;46421;48.610;9.334;2023-04-09T04:36:07;9.65;;;4.82;;
60588;SDS011;46421;48.610;9.334;2023-04-09T04:38:34;9.80;;;5.20;;
60588;SDS011;46421;48.610;9.334;2023-04-09T04:41:00;10.73;;;5.07;;
60588;SDS011;46421;48.610;9.334;2023-04-09T04:43:26;11.80;;;4.80;;
60588;SDS011;46421;48.610;9.334;2023-04-09T04:45:52;12.98;;;5.28;;
60588;SDS011;46421;48.610;9.334;2023-04-09T04:48:17;10.88;;;4.88;;
60588;SDS011;46421;48.610;9.334;2023-04-09T04:50:42;11.02;;;4.95;;
60588;SDS011;46421;48.610;9.334;2023-04-09T04:53:08;10.27;;;5.07;;
60588;SDS011;46421;48.610;9.334;2023-04-09T04:55:34;10.63;;;4.97;;
60588;SDS011;46421;48.610;9.334;2023-04-09T04:58:00;10.15;;;4.60;;
60588;SDS011;46421;48.610;9.334;2023-04-09T05:00:26;9.77;;;4.43;;
60588;SDS011;46421;48.610;9.334;2023-04-09T05:02:51;8.48;;;4.75;;
60588;SDS011;46421;48.610;9.334;2023-04-09T05:05:17;11.65;;;5.25;;
60588;SDS011;46421;48.610;9.334;2023-04-09T05:07:42;9.67;;;5.10;;
60588;SDS011;46421;48.610;9.334;2023-04-09T05:10:08;9.13;;;4.88;;
60588;SDS011;46421;48.610;9.334;2023-04-09T05:12:34;10.75;;;5.13;;
60588;SDS011;46421;48.610;9.334;2023-04-09T05:14:59;9.25;;;4.55;;
60588;SDS011;46421;48.610;9.334;2023-04-09T05:17:24;9.30;;;4.38;;
60588;SDS011;46421;48.610;9.334;2023-04-09T05:19:50;10.68;;;5.30;;
60588;SDS011;46421;48.610;9.334;2023-04-09T05:22:17;9.88;;;4.70;;
60588;SDS011;46421;48.610;9.334;2023-04-09T05:24:42;11.20;;;5.00;;
60588;SDS011;46421;48.610;9.334;2023-04-09T05:27:07;9.13;;;4.45;;
60588;SDS011;46421;48.610;9.334;2023-04-09T05:29:33;12.23;;;5.00;;
60588;SDS011;46421;48.610;9.334;2023-04-09T05:31:58;10.53;;;4.80;;
60588;SDS011;46421;48.610;9.334;2023-04-09T05:34:24;10.45;;;4.90;;
60588;SDS011;46421;48.610;9.334;2023-04-09T05:36:49;9.70;;;4.75;;
60588;SDS011;46421;48.610;9.334;2023-04-09T05:39:14;10.70;;;5.10;;
60588;SDS011;46421;48.610;9.334;2023-04-09T05:41:40;12.07;;;5.43;;
60588;SDS011;46421;48.610;9.334;2023-04-09T05:44:06;10.90;;;5.38;;
60588;SDS011;46421;48.610;9.334;2023-04-09T05:46:31;12.35;;;6.35;;
60588;SDS011;46421;48.610;9.334;2023-04-09T05:48:56;9.50;;;4.85;;
60588;SDS011;46421;48.610;9.334;2023-04-09T05:51:22;9.68;;;5.18;;
60588;SDS011;46421;48.610;9.334;2023-04-09T05:53:47;10.87;;;5.40;;
60588;SDS011;46421;48.610;9.334;2023-04-09T05:56:13;12.30;;;6.18;;
60588;SDS011;46421;48.610;9.334;2023-04-09T05:58:39;12.82;;;5.30;;
60588;SDS011;46421;48.610;9.334;2023-04-09T06:01:05;9.13;;;5.25;;
60588;SDS011;46421;48.610;9.334;2023-04-09T06:03:30;10.77;;;5.20;;
60588;SDS011;46421;48.610;9.334;2023-04-09T06:05:56;9.88;;;5.18;;
60588;SDS011;46421;48.610;9.334;2023-04-09T06:08:21;11.33;;;5.53;;
60588;SDS011;46421;48.610;9.334;2023-04-09T06:10:46;8.83;;;4.87;;
60588;SDS011;46421;48.610;9.334;2023-04-09T06:13:12;11.80;;;6.13;;
60588;SDS011;46421;48.610;9.334;2023-04-09T06:15:37;10.05;;;4.78;;
60588;SDS011;46421;48.610;9.334;2023-04-09T06:18:03;11.70;;;5.45;;
60588;SDS011;46421;48.610;9.334;2023-04-09T06:20:28;10.50;;;5.57;;
60588;SDS011;46421;48.610;9.334;2023-04-09T06:22:54;10.95;;;5.50;;
60588;SDS011;46421;48.610;9.334;2023-04-09T06:25:20;10.88;;;5.97;;
60588;SDS011;46421;48.610;9.334;2023-04-09T06:27:45;11.40;;;5.90;;
60588;SDS011;46421;48.610;9.334;2023-04-09T06:30:11;11.45;;;6.20;;
60588;SDS011;46421;48.610;9.334;2023-04-09T06:32:36;8.85;;;5.30;;
60588;SDS011;46421;48.610;9.334;2023-04-09T06:35:02;9.93;;;5.90;;
60588;SDS011;46421;48.610;9.334;2023-04-09T06:37:27;10.23;;;5.53;;
60588;SDS011;46421;48.610;9.334;2023-04-09T06:39:53;10.27;;;5.90;;
60588;SDS011;46421;48.610;9.334;2023-04-09T06:42:18;11.03;;;6.37;;
60588;SDS011;46421;48.610;9.334;2023-04-09T06:44:43;11.00;;;5.68;;
60588;SDS011;46421;48.610;9.334;2023-04-09T06:47:09;9.32;;;5.40;;
60588;SDS011;46421;48.610;9.334;2023-04-09T06:49:35;10.85;;;5.45;;
60588;SDS011;46421;48.610;9.334;2023-04-09T06:52:00;9.82;;;5.97;;
60588;SDS011;46421;48.610;9.334;2023-04-09T06:54:26;11.30;;;6.07;;
60588;SDS011;46421;48.610;9.334;2023-04-09T06:56:51;8.77;;;5.20;;
60588;SDS011;46421;48.610;9.334;2023-04-09T06:59:16;11.60;;;5.70;;
60588;SDS011;46421;48.610;9.334;2023-04-09T07:01:42;9.98;;;5.40;;
60588;SDS011;46421;48.610;9.334;2023-04-09T07:04:07;10.27;;;5.75;;
60588;SDS011;46421;48.610;9.334;2023-04-09T07:06:33;10.88;;;5.38;;
60588;SDS011;46421;48.610;9.334;2023-04-09T07:08:58;8.60;;;5.13;;
60588;SDS011;46421;48.610;9.334;2023-04-09T07:11:23;9.45;;;5.53;;
60588;SDS011;46421;48.610;9.334;2023-04-09T07:13:49;9.82;;;5.32;;
60588;SDS011;46421;48.610;9.334;2023-04-09T07:16:15;10.73;;;5.60;;
60588;SDS011;46421;48.610;9.334;2023-04-09T07:18:40;8.13;;;4.95;;
60588;SDS011;46421;48.610;9.334;2023-04-09T07:21:05;10.05;;;5.55;;
60588;SDS011;46421;48.610;9.334;2023-04-09T07:23:34;9.55;;;4.72;;
60588;SDS011;46421;48.610;9.334;2023-04-09T07:26:01;8.23;;;4.38;;
60588;SDS011;46421;48.610;9.334;2023-04-09T07:28:27;8.60;;;4.93;;
60588;SDS011;46421;48.610;9.334;2023-04-09T07:30:53;10.00;;;5.30;;
60588;SDS011;46421;48.610;9.334;2023-04-09T07:33:18;7.80;;;4.70;;
60588;SDS011;46421;48.610;9.334;2023-04-09T07:35:43;9.97;;;5.50;;
60588;SDS011;46421;48.610;9.334;2023-04-09T07:38:09;9.13;;;5.25;;
60588;SDS011;46421;48.610;9.334;2023-04-09T07:40:34;8.77;;;4.85;;
60588;SDS011;46421;48.610;9.334;2023-04-09T07:43:00;9.13;;;4.72;;
60588;SDS011;46421;48.610;9.334;2023-04-09T07:45:26;9.93;;;5.25;;
60588;SDS011;46421;48.610;9.334;2023-04-09T07:47:52;8.23;;;4.90;;
60588;SDS011;46421;48.610;9.334;2023-04-09T07:50:17;8.93;;;5.32;;
60588;SDS011;46421;48.610;9.334;2023-04-09T07:52:42;7.85;;;4.18;;
60588;SDS011;46421;48.610;9.334;2023-04-09T07:55:08;9.60;;;4.40;;
60588;SDS011;46421;48.610;9.334;2023-04-09T07:57:34;8.80;;;4.07;;
60588;SDS011;46421;48.610;9.334;2023-04-09T07:59:59;6.43;;;3.27;;
60588;SDS011;46421;48.610;9.334;2023-04-09T08:02:25;6.45;;;3.63;;
60588;SDS011;46421;48.610;9.334;2023-04-09T08:04:50;7.93;;;4.00;;
60588;SDS011;46421;48.610;9.334;2023-04-09T08:07:16;8.50;;;4.43;;
60588;SDS011;46421;48.610;9.334;2023-04-09T08:09:41;9.45;;;5.00;;
60588;SDS011;46421;48.610;9.334;2023-04-09T08:12:07;7.83;;;4.00;;
60588;SDS011;46421;48.610;9.334;2023-04-09T08:14:32;7.43;;;4.05;;
60588;SDS011;46421;48.610;9.334;2023-04-09T08:16:58;7.03;;;4.00;;
60588;SDS011;46421;48.610;9.334;2023-04-09T08:19:23;6.25;;;3.58;;
60588;SDS011;46421;48.610;9.334;2023-04-09T08:21:49;8.98;;;4.43;;
60588;SDS011;46421;48.610;9.334;2023-04-09T08:24:15;8.25;;;4.38;;
60588;SDS011;46421;48.610;9.334;2023-04-09T08:26:40;7.20;;;3.63;;
60588;SDS011;46421;48.610;9.334;2023-04-09T08:29:07;7.78;;;3.90;;
60588;SDS011;46421;48.610;9.334;2023-04-09T08:31:33;6.75;;;3.67;;
60588;SDS011;46421;48.610;9.334;2023-04-09T08:33:58;7.78;;;4.40;;
60588;SDS011;46421;48.610;9.334;2023-04-09T08:36:24;6.18;;;3.63;;
60588;SDS011;46421;48.610;9.334;2023-04-09T08:38:50;6.25;;;3.78;;
60588;SDS011;46421;48.610;9.334;2023-04-09T08:43:46;9.40;;;3.63;;
60588;SDS011;46421;48.610;9.334;2023-04-09T08:46:16;6.55;;;3.55;;
60588;SDS011;46421;48.610;9.334;2023-04-09T08:48:45;6.90;;;3.95;;
60588;SDS011;46421;48.610;9.334;2023-04-09T08:51:15;5.97;;;3.42;;
60588;SDS011;46421;48.610;9.334;2023-04-09T08:53:47;7.40;;;3.83;;
60588;SDS011;46421;48.610;9.334;2023-04-09T08:56:17;7.45;;;3.63;;
60588;SDS011;46421;48.610;9.334;2023-04-09T08:58:45;6.63;;;3.17;;
60588;SDS011;46421;48.610;9.334;2023-04-09T09:01:24;6.82;;;3.60;;
60588;SDS011;46421;48.610;9.334;2023-04-09T09:03:52;5.63;;;3.40;;
60588;SDS011;46421;48.610;9.334;2023-04-09T09:06:21;6.15;;;3.78;;
60588;SDS011;46421;48.610;9.334;2023-04-09T09:09:14;6.95;;;3.33;;
60588;SDS011;46421;48.610;9.334;2023-04-09T09:11:41;5.70;;;3.17;;
60588;SDS011;46421;48.610;9.334;2023-04-09T09:14:12;6.45;;;3.35;;
60588;SDS011;46421;48.610;9.334;2023-04-09T09:16:40;5.30;;;2.70;;
60588;SDS011;46421;48.610;9.334;2023-04-09T09:21:57;5.85;;;3.20;;
60588;SDS011;46421;48.610;9.334;2023-04-09T09:24:32;6.97;;;3.40;;
60588;SDS011;46421;48.610;9.334;2023-04-09T09:26:59;5.60;;;2.67;;
60588;SDS011;46421;48.610;9.334;2023-04-09T09:29:25;6.38;;;3.28;;
60588;SDS011;46421;48.610;9.334;2023-04-09T09:31:52;5.60;;;2.92;;
60588;SDS011;46421;48.610;9.334;2023-04-09T09:36:45;5.68;;;2.83;;
60588;SDS011;46421;48.610;9.334;2023-04-09T09:39:11;5.75;;;3.15;;
60588;SDS011;46421;48.610;9.334;2023-04-09T09:41:38;6.00;;;2.83;;
60588;SDS011;46421;48.610;9.334;2023-04-09T09:44:05;5.15;;;2.50;;
60588;SDS011;46421;48.610;9.334;2023-04-09T09:46:41;6.70;;;3.33;;
60588;SDS011;46421;48.610;9.334;2023-04-09T09:49:07;5.47;;;3.03;;
60588;SDS011;46421;48.610;9.334;2023-04-09T09:51:40;5.50;;;3.17;;
60588;SDS011;46421;48.610;9.334;2023-04-09T09:54:15;6.30;;;3.58;;
60588;SDS011;46421;48.610;9.334;2023-04-09T09:56:49;6.82;;;3.30;;
60588;SDS011;46421;48.610;9.334;2023-04-09T09:59:20;6.97;;;3.05;;
60588;SDS011;46421;48.610;9.334;2023-04-09T10:01:48;5.95;;;3.40;;
60588;SDS011;46421;48.610;9.334;2023-04-09T10:04:18;5.80;;;2.78;;
60588;SDS011;46421;48.610;9.334;2023-04-09T10:06:46;6.57;;;3.00;;
60588;SDS011;46421;48.610;9.334;2023-04-09T10:09:13;6.55;;;3.67;;
60588;SDS011;46421;48.610;9.334;2023-04-09T10:11:39;6.30;;;3.13;;
60588;SDS011;46421;48.610;9.334;2023-04-09T10:14:09;6.28;;;3.17;;
60588;SDS011;46421;48.610;9.334;2023-04-09T10:16:35;6.38;;;3.63;;
60588;SDS011;46421;48.610;9.334;2023-04-09T10:19:01;6.50;;;3.42;;
60588;SDS011;46421;48.610;9.334;2023-04-09T10:24:40;5.90;;;3.08;;
60588;SDS011;46421;48.610;9.334;2023-04-09T10:27:09;5.47;;;3.15;;
60588;SDS011;46421;48.610;9.334;2023-04-09T10:29:40;6.22;;;3.28;;
60588;SDS011;46421;48.610;9.334;2023-04-09T10:32:11;5.07;;;2.60;;
60588;SDS011;46421;48.610;9.334;2023-04-09T10:34:40;5.70;;;2.70;;
60588;SDS011;46421;48.610;9.334;2023-04-09T10:37:08;5.95;;;3.13;;
60588;SDS011;46421;48.610;9.334;2023-04-09T10:39:38;7.13;;;3.22;;
60588;SDS011;46421;48.610;9.334;2023-04-09T10:42:12;7.28;;;3.70;;
60588;SDS011;46421;48.610;9.334;2023-04-09T10:44:40;5.93;;;2.90;;
60588;SDS011;46421;48.610;9.334;2023-04-09T10:47:09;5.80;;;2.95;;
60588;SDS011;46421;48.610;9.334;2023-04-09T10:49:39;5.40;;;2.63;;
60588;SDS011;46421;48.610;9.334;2023-04-09T10:52:06;5.88;;;3.08;;
60588;SDS011;46421;48.610;9.334;2023-04-09T10:57:10;6.28;;;3.28;;
60588;SDS011;46421;48.610;9.334;2023-04-09T10:59:44;6.78;;;3.42;;
60588;SDS011;46421;48.610;9.334;2023-04-09T11:07:46;6.28;;;3.30;;
60588;SDS011;46421;48.610;9.334;2023-04-09T11:10:18;6.10;;;3.40;;
60588;SDS011;46421;48.610;9.334;2023-04-09T11:12:45;5.38;;;2.80;;
60588;SDS011;46421;48.610;9.334;2023-04-09T11:15:15;5.43;;;2.90;;
60588;SDS011;46421;48.610;9.334;2023-04-09T11:17:42;5.47;;;3.03;;
60588;SDS011;46421;48.610;9.334;2023-04-09T11:20:08;5.88;;;2.85;;
60588;SDS011;46421;48.610;9.334;2023-04-09T11:22:34;4.82;;;2.35;;
60588;SDS011;46421;48.610;9.334;2023-04-09T11:25:00;8.63;;;3.85;;
60588;SDS011;46421;48.610;9.334;2023-04-09T11:27:25;5.60;;;2.77;;
60588;SDS011;46421;48.610;9.334;2023-04-09T11:29:54;5.93;;;3.03;;
60588;SDS011;46421;48.610;9.334;2023-04-09T11:32:20;6.18;;;2.85;;
60588;SDS011;46421;48.610;9.334;2023-04-09T11:34:45;6.20;;;3.35;;
60588;SDS011;46421;48.610;9.334;2023-04-09T11:37:13;5.45;;;2.92;;
60588;SDS011;46421;48.610;9.334;2023-04-09T11:39:42;5.93;;;2.78;;
60588;SDS011;46421;48.610;9.334;2023-04-09T11:42:12;6.50;;;3.28;;
60588;SDS011;46421;48.610;9.334;2023-04-09T11:44:38;6.93;;;3.30;;
60588;SDS011;46421;48.610;9.334;2023-04-09T11:47:05;6.88;;;3.20;;
60588;SDS011;46421;48.610;9.334;2023-04-09T11:49:31;6.20;;;2.72;;
60588;SDS011;46421;48.610;9.334;2023-04-09T11:51:57;6.88;;;2.90;;
60588;SDS011;46421;48.610;9.334;2023-04-09T11:54:25;6.57;;;3.05;;
60588;SDS011;46421;48.610;9.334;2023-04-09T11:56:57;6.10;;;3.08;;
60588;SDS011;46421;48.610;9.334;2023-04-09T11:59:23;6.65;;;3.55;;
60588;SDS011;46421;48.610;9.334;2023-04-09T12:01:49;5.10;;;2.78;;
60588;SDS011;46421;48.610;9.334;2023-04-09T12:04:21;7.30;;;3.03;;
60588;SDS011;46421;48.610;9.334;2023-04-09T12:06:46;5.43;;;2.65;;
60588;SDS011;46421;48.610;9.334;2023-04-09T12:09:12;6.32;;;2.47;;
60588;SDS011;46421;48.610;9.334;2023-04-09T12:11:38;5.07;;;2.45;;
60588;SDS011;46421;48.610;9.334;2023-04-09T12:14:06;5.47;;;2.63;;
60588;SDS011;46421;48.610;9.334;2023-04-09T12:16:37;6.10;;;2.97;;
60588;SDS011;46421;48.610;9.334;2023-04-09T12:19:05;5.25;;;2.55;;
60588;SDS011;46421;48.610;9.334;2023-04-09T12:21:48;5.97;;;2.97;;
60588;SDS011;46421;48.610;9.334;2023-04-09T12:24:14;5.68;;;2.70;;
60588;SDS011;46421;48.610;9.334;2023-04-09T12:26:41;6.07;;;2.75;;
60588;SDS011;46421;48.610;9.334;2023-04-09T12:29:07;5.13;;;2.88;;
60588;SDS011;46421;48.610;9.334;2023-04-09T12:31:32;4.97;;;2.50;;
60588;SDS011;46421;48.610;9.334;2023-04-09T12:33:57;6.07;;;2.77;;
60588;SDS011;46421;48.610;9.334;2023-04-09T12:36:22;6.13;;;2.70;;
60588;SDS011;46421;48.610;9.334;2023-04-09T12:38:48;6.43;;;2.90;;
60588;SDS011;46421;48.610;9.334;2023-04-09T12:41:14;6.68;;;2.70;;
60588;SDS011;46421;48.610;9.334;2023-04-09T12:43:40;5.45;;;2.65;;
60588;SDS011;46421;48.610;9.334;2023-04-09T12:46:10;5.75;;;2.65;;
60588;SDS011;46421;48.610;9.334;2023-04-09T12:48:35;5.80;;;2.60;;
60588;SDS011;46421;48.610;9.334;2023-04-09T12:51:00;6.40;;;2.73;;
60588;SDS011;46421;48.610;9.334;2023-04-09T12:53:26;6.05;;;2.47;;
60588;SDS011;46421;48.610;9.334;2023-04-09T12:55:52;6.75;;;2.90;;
60588;SDS011;46421;48.610;9.334;2023-04-09T12:58:17;5.30;;;2.70;;
60588;SDS011;46421;48.610;9.334;2023-04-09T13:00:43;4.55;;;2.20;;
60588;SDS011;46421;48.610;9.334;2023-04-09T13:03:10;5.65;;;2.30;;
60588;SDS011;46421;48.610;9.334;2023-04-09T13:05:35;4.82;;;2.30;;
60588;SDS011;46421;48.610;9.334;2023-04-09T13:08:01;5.53;;;2.58;;
60588;SDS011;46421;48.610;9.334;2023-04-09T13:10:29;4.85;;;2.45;;
60588;SDS011;46421;48.610;9.334;2023-04-09T13:12:55;6.82;;;3.03;;
60588;SDS011;46421;48.610;9.334;2023-04-09T13:15:21;4.55;;;2.08;;
60588;SDS011;46421;48.610;9.334;2023-04-09T13:17:46;5.60;;;2.50;;
60588;SDS011;46421;48.610;9.334;2023-04-09T13:20:12;5.55;;;2.58;;
60588;SDS011;46421;48.610;9.334;2023-04-09T13:22:37;5.13;;;2.63;;
60588;SDS011;46421;48.610;9.334;2023-04-09T13:25:03;5.82;;;2.63;;
60588;SDS011;46421;48.610;9.334;2023-04-09T13:27:29;6.10;;;2.92;;
60588;SDS011;46421;48.610;9.334;2023-04-09T13:29:54;5.30;;;2.60;;
60588;SDS011;46421;48.610;9.334;2023-04-09T13:32:20;5.07;;;2.47;;
60588;SDS011;46421;48.610;9.334;2023-04-09T13:34:47;5.72;;;2.80;;
60588;SDS011;46421;48.610;9.334;2023-04-09T13:37:13;4.80;;;2.60;;
60588;SDS011;46421;48.610;9.334;2023-04-09T13:39:38;4.88;;;2.60;;
60588;SDS011;46421;48.610;9.334;2023-04-09T13:42:04;5.32;;;2.63;;
60588;SDS011;46421;48.610;9.334;2023-04-09T13:44:29;4.85;;;2.55;;
60588;SDS011;46421;48.610;9.334;2023-04-09T13:46:55;5.28;;;2.35;;
60588;SDS011;46421;48.610;9.334;2023-04-09T13:49:20;5.53;;;2.65;;
60588;SDS011;46421;48.610;9.334;2023-04-09T13:51:45;4.90;;;2.63;;
60588;SDS011;46421;48.610;9.334;2023-04-09T13:54:12;5.78;;;2.90;;
60588;SDS011;46421;48.610;9.334;2023-04-09T13:56:38;5.60;;;2.70;;
60588;SDS011;46421;48.610;9.334;2023-04-09T13:59:03;4.85;;;2.30;;
60588;SDS011;46421;48.610;9.334;2023-04-09T14:01:30;5.55;;;2.47;;
60588;SDS011;46421;48.610;9.334;2023-04-09T14:03:55;4.90;;;2.70;;
60588;SDS011;46421;48.610;9.334;2023-04-09T14:06:21;4.60;;;2.40;;
60588;SDS011;46421;48.610;9.334;2023-04-09T14:08:46;5.68;;;2.28;;
60588;SDS011;46421;48.610;9.334;2023-04-09T14:11:12;4.72;;;2.40;;
60588;SDS011;46421;48.610;9.334;2023-04-09T14:13:39;4.72;;;2.20;;
60588;SDS011;46421;48.610;9.334;2023-04-09T14:16:06;5.10;;;2.88;;
60588;SDS011;46421;48.610;9.334;2023-04-09T14:20:57;6.97;;;2.17;;
60588;SDS011;46421;48.610;9.334;2023-04-09T14:23:24;7.35;;;2.90;;
60588;SDS011;46421;48.610;9.334;2023-04-09T14:25:50;6.32;;;2.38;;
60588;SDS011;46421;48.610;9.334;2023-04-09T14:28:16;5.72;;;2.60;;
60588;SDS011;46421;48.610;9.334;2023-04-09T14:30:41;7.40;;;2.90;;
60588;SDS011;46421;48.610;9.334;2023-04-09T14:33:07;5.35;;;2.58;;
60588;SDS011;46421;48.610;9.334;2023-04-09T14:35:32;5.90;;;2.13;;
60588;SDS011;46421;48.610;9.334;2023-04-09T14:37:58;5.70;;;2.50;;
60588;SDS011;46421;48.610;9.334;2023-04-09T14:40:23;5.60;;;2.33;;
60588;SDS011;46421;48.610;9.334;2023-04-09T14:42:48;5.03;;;2.85;;
60588;SDS011;46421;48.610;9.334;2023-04-09T14:45:14;5.68;;;2.67;;
60588;SDS011;46421;48.610;9.334;2023-04-09T14:47:40;5.82;;;2.20;;
60588;SDS011;46421;48.610;9.334;2023-04-09T14:50:05;5.35;;;2.75;;
60588;SDS011;46421;48.610;9.334;2023-04-09T14:52:31;5.15;;;2.25;;
60588;SDS011;46421;48.610;9.334;2023-04-09T14:54:57;5.80;;;2.75;;
60588;SDS011;46421;48.610;9.334;2023-04-09T14:57:22;6.07;;;2.92;;
60588;SDS011;46421;48.610;9.334;2023-04-09T14:59:48;6.05;;;3.17;;
60588;SDS011;46421;48.610;9.334;2023-04-09T15:02:13;5.72;;;2.90;;
60588;SDS011;46421;48.610;9.334;2023-04-09T15:04:39;4.97;;;2.50;;
60588;SDS011;46421;48.610;9.334;2023-04-09T15:07:05;5.95;;;2.72;;
60588;SDS011;46421;48.610;9.334;2023-04-09T15:09:30;4.85;;;2.45;;
60588;SDS011;46421;48.610;9.334;2023-04-09T15:11:56;4.93;;;2.15;;
60588;SDS011;46421;48.610;9.334;2023-04-09T15:14:21;5.32;;;2.28;;
60588;SDS011;46421;48.610;9.334;2023-04-09T15:16:47;6.35;;;2.63;;